Home / US / California / Castle Air Force Base

Castle Air Force Base, CA Weather

Current Report for Mon Jul 16 2018

As of 3:45 PM PDT MON JUL 16 2018

102°F 39°cCastle Air Force Base weather conditions : Clear

Clear

Barometer: 29.87 inHg. falling

Humidity: 21%

Wind: NW. 12mph

Wind Gust: 14mph

Wind Chill: 102°F

Dew Point: 55°F steady

Visibility: 10.00mi.

Sunrise: 5:54 AM

Sunset: 8:20 PM

Moon Phase: Waxing Crescent Moon

Daily and Hourly Summary

Loading Castle Air Force Base CA Summary and Hourly data for today, tonight and tomorrow...
Forecast for Castle Air Force Base, CA:
(Forecast based on TAF for )
1127 AM PDT MON JUL 16 2018
  
MORNING AFTERNOON EVENING OVERNIGHT MORNING
Clear Clear Clear Clear Clear
Clear Clear Clear Clear Clear
Original Encoded TAF:
Dated: 1127 AM PDT MON JUL 16 2018
2018/07/16 18:27
TAF KMER 161720Z 1618/1718 33007KT P6SM SKC 
      TEMPO 1700/1704 32011G17KT 
      AMD NOT SKED

Temperatures Today (View More Charts)

Castle Air Force Base, CA updates by locals

Write your own report, forecast, or traffic update:

Please note by clicking on "Post" you acknowledge that you have read the Terms of Service and the report and/or forecast you are posting is in compliance with such terms. Be respectful. An inappropriate post will be removed by a moderator. If you are not finding the information you want, please be sure to note the navigation tabs just above the breadcrumbs, which are links to other data relating to this city.